Time;durP1;ratioP1;P1;durP2;ratioP2;P2;SDS_P1;SDS_P2;PMS_P1;PMS_P2;Temp;Humidity;BMP_temperature;BMP_pressure;BME280_temperature;BME280_humidity;BME280_pressure;Samples;Min_cycle;Max_cycle;Signal;HPM_P1;HPM_P2
2022/10/18 00:00:54;;;;;;;;;;;;;;;;;;5131751;28;19939;-58
2022/10/18 00:03:19;;;;;;;;;;;;;;;;;;5131752;28;19908;-57
2022/10/18 00:05:44;;;;;;;;;;;;;;;;;;5131972;28;19915;-58
2022/10/18 00:08:09;;;;;;;;;;;;;;;;;;5131772;28;19911;-58
2022/10/18 00:10:34;;;;;;;;;;;;;;;;;;5134249;27;19919;-58
2022/10/18 00:12:59;;;;;;;;;;;;;;;;;;5135676;27;20015;-58
2022/10/18 00:15:24;;;;;;;;;;;;;;;;;;5135355;27;19907;-58
2022/10/18 00:17:50;;;;;;;;;;;;;;;;;;5135749;27;19915;-57
2022/10/18 00:20:15;;;;;;;;;;;;;;;;;;5135565;27;19907;-58
2022/10/18 00:22:40;;;;;;;;;;;;;;;;;;5135093;27;19912;-58
2022/10/18 00:25:05;;;;;;;;;;;;;;;;;;5135597;27;19950;-58
2022/10/18 00:27:30;;;;;;;;;;;;;;;;;;5134973;27;19998;-58
2022/10/18 00:29:55;;;;;;;;;;;;;;;;;;5135105;27;19919;-57
2022/10/18 00:32:20;;;;;;;;;;;;;;;;;;5134957;27;20327;-58
2022/10/18 00:34:45;;;;;;;;;;;;;;;;;;5135210;27;19911;-58
2022/10/18 00:37:10;;;;;;;;;;;;;;;;;;5135314;27;20369;-58
2022/10/18 00:39:35;;;;;;;;;;;;;;;;;;5134949;27;19907;-58
2022/10/18 00:42:02;;;;;;;;;;;;;;;;;;5135229;27;19907;-57
2022/10/18 00:44:27;;;;;;;;;;;;;;;;;;5134748;27;20384;-58
2022/10/18 00:46:52;;;;;;;;;;;;;;;;;;5134908;27;20365;-58
2022/10/18 00:49:17;;;;;;;;;;;;;;;;;;5134798;27;20035;-58
2022/10/18 00:51:43;;;;;;;;;;;;;;;;;;5134868;27;19914;-58
2022/10/18 00:54:08;;;;;;;;;;;;;;;;;;5134783;27;19908;-58
2022/10/18 00:56:33;;;;;;;;;;;;;;;;;;5134606;27;19953;-57
2022/10/18 00:58:58;;;;;;;;;;;;;;;;;;5134833;27;19915;-58
2022/10/18 01:01:23;;;;;;;;;;;;;;;;;;5134835;27;19907;-58
2022/10/18 01:03:48;;;;;;;;;;;;;;;;;;5134653;27;19930;-58
2022/10/18 01:06:14;;;;;;;;;;;;;;;;;;5134475;27;20014;-57
2022/10/18 01:08:39;;;;;;;;;;;;;;;;;;5134365;27;19911;-57
2022/10/18 01:11:04;;;;;;;;;;;;;;;;;;5134496;27;19907;-57
2022/10/18 01:13:29;;;;;;;;;;;;;;;;;;5134152;27;20380;-58
2022/10/18 01:15:54;;;;;;;;;;;;;;;;;;5134351;27;19950;-58
2022/10/18 01:18:19;;;;;;;;;;;;;;;;;;5133019;27;20450;-58
2022/10/18 01:20:44;;;;;;;;;;;;;;;;;;5132391;27;19912;-58
2022/10/18 01:23:09;;;;;;;;;;;;;;;;;;5133495;27;19930;-58
2022/10/18 01:25:34;;;;;;;;;;;;;;;;;;5134546;27;19908;-58
2022/10/18 01:27:59;;;;;;;;;;;;;;;;;;5134142;27;19912;-57
2022/10/18 01:30:24;;;;;;;;;;;;;;;;;;5133753;27;20045;-58
2022/10/18 01:32:49;;;;;;;;;;;;;;;;;;5134186;27;19914;-58
2022/10/18 01:35:14;;;;;;;;;;;;;;;;;;5134138;27;19972;-58
2022/10/18 01:37:40;;;;;;;;;;;;;;;;;;5133713;27;20273;-58
2022/10/18 01:40:05;;;;;;;;;;;;;;;;;;5134200;27;19908;-58
2022/10/18 01:42:30;;;;;;;;;;;;;;;;;;5133867;27;19915;-58
2022/10/18 01:44:55;;;;;;;;;;;;;;;;;;5133664;27;20329;-59
2022/10/18 01:47:21;;;;;;;;;;;;;;;;;;5133372;27;19911;-58
2022/10/18 01:49:46;;;;;;;;;;;;;;;;;;5133944;27;19923;-57
2022/10/18 01:52:11;;;;;;;;;;;;;;;;;;5133605;27;19911;-58
2022/10/18 01:54:36;;;;;;;;;;;;;;;;;;5133807;27;19908;-58
2022/10/18 01:57:01;;;;;;;;;;;;;;;;;;5133575;27;19915;-58
2022/10/18 01:59:26;;;;;;;;;;;;;;;;;;5133410;27;19908;-58
2022/10/18 02:01:51;;;;;;;;;;;;;;;;;;5133620;27;19919;-57
2022/10/18 02:04:16;;;;;;;;;;;;;;;;;;5133538;27;20383;-58
2022/10/18 02:06:42;;;;;;;;;;;;;;;;;;5133035;27;19956;-58
2022/10/18 02:09:07;;;;;;;;;;;;;;;;;;5133417;27;20555;-58
2022/10/18 02:11:32;;;;;;;;;;;;;;;;;;5133273;27;19915;-58
2022/10/18 02:13:57;;;;;;;;;;;;;;;;;;5133126;27;19912;-58
2022/10/18 02:16:22;;;;;;;;;;;;;;;;;;5133024;27;20266;-58
2022/10/18 02:18:47;;;;;;;;;;;;;;;;;;5133203;27;19946;-58
2022/10/18 02:21:12;;;;;;;;;;;;;;;;;;5133566;27;19913;-58
2022/10/18 02:23:37;;;;;;;;;;;;;;;;;;5132818;27;20022;-58
2022/10/18 02:26:02;;;;;;;;;;;;;;;;;;5132899;27;19911;-58
2022/10/18 02:28:27;;;;;;;;;;;;;;;;;;5133059;27;20330;-57
2022/10/18 02:30:52;;;;;;;;;;;;;;;;;;5132847;27;19968;-57
2022/10/18 02:33:17;;;;;;;;;;;;;;;;;;5132753;27;19939;-58
2022/10/18 02:35:43;;;;;;;;;;;;;;;;;;5132812;27;20030;-58
2022/10/18 02:38:08;;;;;;;;;;;;;;;;;;5132767;27;20369;-58
2022/10/18 02:40:33;;;;;;;;;;;;;;;;;;5132713;27;19933;-58
2022/10/18 02:42:58;;;;;;;;;;;;;;;;;;5132938;27;19952;-58
2022/10/18 02:45:23;;;;;;;;;;;;;;;;;;5132813;27;19910;-58
2022/10/18 02:47:48;;;;;;;;;;;;;;;;;;5132317;27;20365;-58
2022/10/18 02:50:14;;;;;;;;;;;;;;;;;;5132618;27;20047;-58
2022/10/18 02:52:39;;;;;;;;;;;;;;;;;;5132314;27;19908;-58
2022/10/18 02:55:04;;;;;;;;;;;;;;;;;;5132698;27;20270;-59
2022/10/18 02:57:29;;;;;;;;;;;;;;;;;;5132494;27;19914;-58
2022/10/18 02:59:54;;;;;;;;;;;;;;;;;;5132248;27;20384;-57
2022/10/18 03:02:19;;;;;;;;;;;;;;;;;;5132230;27;20254;-57
2022/10/18 03:04:44;;;;;;;;;;;;;;;;;;5132412;27;19918;-57
2022/10/18 03:07:09;;;;;;;;;;;;;;;;;;5132444;27;19908;-58
2022/10/18 03:09:34;;;;;;;;;;;;;;;;;;5132189;27;19947;-58
2022/10/18 03:12:00;;;;;;;;;;;;;;;;;;5132197;28;19911;-58
2022/10/18 03:14:25;;;;;;;;;;;;;;;;;;5132156;28;19975;-57
2022/10/18 03:16:50;;;;;;;;;;;;;;;;;;5131848;28;19998;-59
2022/10/18 03:19:15;;;;;;;;;;;;;;;;;;5131940;28;19904;-58
2022/10/18 03:21:40;;;;;;;;;;;;;;;;;;5131973;28;19907;-58
2022/10/18 03:24:05;;;;;;;;;;;;;;;;;;5131772;28;20251;-58
2022/10/18 03:26:30;;;;;;;;;;;;;;;;;;5130448;28;20402;-58
2022/10/18 03:28:55;;;;;;;;;;;;;;;;;;5130211;28;19929;-58
2022/10/18 03:31:20;;;;;;;;;;;;;;;;;;5131825;28;19957;-59
2022/10/18 03:33:45;;;;;;;;;;;;;;;;;;5132211;28;19914;-59
2022/10/18 03:36:11;;;;;;;;;;;;;;;;;;5132139;28;19992;-59
2022/10/18 03:38:36;;;;;;;;;;;;;;;;;;5132004;28;19918;-58
2022/10/18 03:41:01;;;;;;;;;;;;;;;;;;5132293;28;19908;-58
2022/10/18 03:43:26;;;;;;;;;;;;;;;;;;5132314;28;19960;-58
2022/10/18 03:45:51;;;;;;;;;;;;;;;;;;5134353;27;20363;-58
2022/10/18 03:48:16;;;;;;;;;;;;;;;;;;5133912;27;19923;-58
2022/10/18 03:50:41;;;;;;;;;;;;;;;;;;5135967;27;20388;-59
2022/10/18 03:53:06;;;;;;;;;;;;;;;;;;5136039;27;19908;-59
2022/10/18 03:55:31;;;;;;;;;;;;;;;;;;5136384;27;19914;-59
2022/10/18 03:57:56;;;;;;;;;;;;;;;;;;5135744;27;19911;-59
2022/10/18 04:00:21;;;;;;;;;;;;;;;;;;5135631;27;19960;-59
2022/10/18 04:02:47;;;;;;;;;;;;;;;;;;5135406;27;19915;-58
2022/10/18 04:05:12;;;;;;;;;;;;;;;;;;5135836;27;19907;-59
2022/10/18 04:07:38;;;;;;;;;;;;;;;;;;5135404;27;19914;-59
2022/10/18 04:10:03;;;;;;;;;;;;;;;;;;5135774;27;20006;-59
2022/10/18 04:12:28;;;;;;;;;;;;;;;;;;5135622;27;19908;-59
2022/10/18 04:14:53;;;;;;;;;;;;;;;;;;5135342;27;19919;-58
2022/10/18 04:17:18;;;;;;;;;;;;;;;;;;5135240;27;19911;-58
2022/10/18 04:19:43;;;;;;;;;;;;;;;;;;5135454;27;19908;-58
2022/10/18 04:22:09;;;;;;;;;;;;;;;;;;5135509;27;19931;-58
2022/10/18 04:24:34;;;;;;;;;;;;;;;;;;5135151;27;20402;-58
2022/10/18 04:26:59;;;;;;;;;;;;;;;;;;5135196;27;19912;-58
2022/10/18 04:29:24;;;;;;;;;;;;;;;;;;5133313;27;19918;-57
2022/10/18 04:31:49;;;;;;;;;;;;;;;;;;5135006;27;19912;-58
2022/10/18 04:34:14;;;;;;;;;;;;;;;;;;5135076;27;19998;-58
2022/10/18 04:36:39;;;;;;;;;;;;;;;;;;5134984;27;19908;-58
2022/10/18 04:39:04;;;;;;;;;;;;;;;;;;5135125;27;19907;-57
2022/10/18 04:41:30;;;;;;;;;;;;;;;;;;5135265;27;19907;-58
2022/10/18 04:43:55;;;;;;;;;;;;;;;;;;5134854;27;20478;-59
2022/10/18 04:46:20;;;;;;;;;;;;;;;;;;5135032;27;19908;-58
2022/10/18 04:48:45;;;;;;;;;;;;;;;;;;5132636;27;19915;-58
2022/10/18 04:51:10;;;;;;;;;;;;;;;;;;5135126;27;20258;-58
2022/10/18 04:53:35;;;;;;;;;;;;;;;;;;5134718;27;20045;-58
2022/10/18 04:56:00;;;;;;;;;;;;;;;;;;5134038;27;19914;-58
2022/10/18 04:58:25;;;;;;;;;;;;;;;;;;5134402;27;20365;-58
2022/10/18 05:00:50;;;;;;;;;;;;;;;;;;5134431;27;19976;-58
2022/10/18 05:03:15;;;;;;;;;;;;;;;;;;5134742;27;19990;-57
2022/10/18 05:05:40;;;;;;;;;;;;;;;;;;5134485;27;19926;-58
2022/10/18 05:08:06;;;;;;;;;;;;;;;;;;5134562;27;20373;-59
2022/10/18 05:10:31;;;;;;;;;;;;;;;;;;5134474;27;19908;-58
2022/10/18 05:12:56;;;;;;;;;;;;;;;;;;5134104;27;20374;-58
2022/10/18 05:15:21;;;;;;;;;;;;;;;;;;5134501;27;19919;-58
2022/10/18 05:17:46;;;;;;;;;;;;;;;;;;5134128;27;19908;-58
2022/10/18 05:20:11;;;;;;;;;;;;;;;;;;5134595;27;19914;-58
2022/10/18 05:22:36;;;;;;;;;;;;;;;;;;5133929;27;19907;-57
2022/10/18 05:25:01;;;;;;;;;;;;;;;;;;5134056;27;20484;-58
2022/10/18 05:27:26;;;;;;;;;;;;;;;;;;5134377;27;19998;-58
2022/10/18 05:29:51;;;;;;;;;;;;;;;;;;5133717;27;19922;-57
2022/10/18 05:32:16;;;;;;;;;;;;;;;;;;5133800;27;20354;-58
2022/10/18 05:34:42;;;;;;;;;;;;;;;;;;5134018;27;19962;-58
2022/10/18 05:37:07;;;;;;;;;;;;;;;;;;5133909;27;20397;-58
2022/10/18 05:39:32;;;;;;;;;;;;;;;;;;5133874;27;19922;-58
2022/10/18 05:41:57;;;;;;;;;;;;;;;;;;5133592;27;19930;-59
2022/10/18 05:44:22;;;;;;;;;;;;;;;;;;5133715;27;19911;-58
2022/10/18 05:46:47;;;;;;;;;;;;;;;;;;5133905;27;19915;-57
2022/10/18 05:49:12;;;;;;;;;;;;;;;;;;5133655;27;19916;-57
2022/10/18 05:51:37;;;;;;;;;;;;;;;;;;5133680;27;20392;-58
2022/10/18 05:54:02;;;;;;;;;;;;;;;;;;5133633;27;19911;-57
2022/10/18 05:56:27;;;;;;;;;;;;;;;;;;5133751;27;19964;-60
2022/10/18 05:58:53;;;;;;;;;;;;;;;;;;5133354;27;19915;-58
2022/10/18 06:01:18;;;;;;;;;;;;;;;;;;5133167;27;19908;-58
2022/10/18 06:03:43;;;;;;;;;;;;;;;;;;5133465;27;20286;-58
2022/10/18 06:06:08;;;;;;;;;;;;;;;;;;5133525;27;19958;-58
2022/10/18 06:08:33;;;;;;;;;;;;;;;;;;5132768;27;19970;-58
2022/10/18 06:10:58;;;;;;;;;;;;;;;;;;5133096;27;20001;-57
2022/10/18 06:13:23;;;;;;;;;;;;;;;;;;5133457;27;19911;-58
2022/10/18 06:15:48;;;;;;;;;;;;;;;;;;5132996;27;19907;-57
2022/10/18 06:18:13;;;;;;;;;;;;;;;;;;5133237;27;19907;-58
2022/10/18 06:20:39;;;;;;;;;;;;;;;;;;5133245;27;19915;-57
2022/10/18 06:23:04;;;;;;;;;;;;;;;;;;5132886;27;19912;-58
2022/10/18 06:25:29;;;;;;;;;;;;;;;;;;5133166;27;19922;-58
2022/10/18 06:27:54;;;;;;;;;;;;;;;;;;5132809;27;19912;-58
2022/10/18 06:30:19;;;;;;;;;;;;;;;;;;5132779;27;20333;-58
2022/10/18 06:32:44;;;;;;;;;;;;;;;;;;5132866;27;19921;-57
2022/10/18 06:35:09;;;;;;;;;;;;;;;;;;5133075;27;19914;-58
2022/10/18 06:37:35;;;;;;;;;;;;;;;;;;5132743;27;19961;-58
2022/10/18 06:40:00;;;;;;;;;;;;;;;;;;5133028;27;20259;-58
2022/10/18 06:42:25;;;;;;;;;;;;;;;;;;5132796;27;20320;-57
2022/10/18 06:44:51;;;;;;;;;;;;;;;;;;5132830;27;19908;-58
2022/10/18 06:47:16;;;;;;;;;;;;;;;;;;5132758;27;19914;-58
2022/10/18 06:49:41;;;;;;;;;;;;;;;;;;5132450;27;19963;-58
2022/10/18 06:52:06;;;;;;;;;;;;;;;;;;5132789;27;20410;-58
2022/10/18 06:54:31;;;;;;;;;;;;;;;;;;5132904;27;19908;-58
2022/10/18 06:56:56;;;;;;;;;;;;;;;;;;5132463;27;19994;-58
2022/10/18 06:59:22;;;;;;;;;;;;;;;;;;5132315;27;19935;-58
2022/10/18 07:01:47;;;;;;;;;;;;;;;;;;5132341;27;19915;-58
2022/10/18 07:04:12;;;;;;;;;;;;;;;;;;5132410;27;20285;-58
2022/10/18 07:06:37;;;;;;;;;;;;;;;;;;5132459;27;20332;-58
2022/10/18 07:09:02;;;;;;;;;;;;;;;;;;5132124;27;20289;-58
2022/10/18 07:11:27;;;;;;;;;;;;;;;;;;5132594;27;19907;-58
2022/10/18 07:13:53;;;;;;;;;;;;;;;;;;5132580;28;19908;-58
2022/10/18 07:16:18;;;;;;;;;;;;;;;;;;5132184;28;20397;-58
2022/10/18 07:18:43;;;;;;;;;;;;;;;;;;5132292;27;20302;-58
2022/10/18 07:21:08;;;;;;;;;;;;;;;;;;5135822;27;19907;-59
2022/10/18 07:23:33;;;;;;;;;;;;;;;;;;5136493;27;19908;-58
2022/10/18 07:26:00;;;;;;;;;;;;;;;;;;5136743;27;19942;-58
2022/10/18 07:28:25;;;;;;;;;;;;;;;;;;5136673;27;19911;-58
2022/10/18 07:30:50;;;;;;;;;;;;;;;;;;5136197;27;19916;-58
2022/10/18 07:33:15;;;;;;;;;;;;;;;;;;5136238;27;19912;-58
2022/10/18 07:35:40;;;;;;;;;;;;;;;;;;5136450;27;20251;-58
2022/10/18 07:38:05;;;;;;;;;;;;;;;;;;5136023;27;20002;-58
2022/10/18 07:40:31;;;;;;;;;;;;;;;;;;5136496;27;20418;-58
2022/10/18 07:42:56;;;;;;;;;;;;;;;;;;5136125;27;20002;-58
2022/10/18 07:45:21;;;;;;;;;;;;;;;;;;5136078;27;19945;-58
2022/10/18 07:47:46;;;;;;;;;;;;;;;;;;5136075;27;19968;-58
2022/10/18 07:50:11;;;;;;;;;;;;;;;;;;5135825;27;20420;-58
2022/10/18 07:52:36;;;;;;;;;;;;;;;;;;5136274;27;20419;-57
2022/10/18 07:55:01;;;;;;;;;;;;;;;;;;5135925;27;19908;-58
2022/10/18 07:57:26;;;;;;;;;;;;;;;;;;5136237;27;19956;-60
2022/10/18 07:59:55;;;;;;;;;;;;;;;;;;5135579;27;19914;-60
2022/10/18 08:02:20;;;;;;;;;;;;;;;;;;5135768;27;19913;-59
2022/10/18 08:04:45;;;;;;;;;;;;;;;;;;5135975;27;19908;-59
2022/10/18 08:07:10;;;;;;;;;;;;;;;;;;5135713;27;19911;-59
2022/10/18 08:09:36;;;;;;;;;;;;;;;;;;5135610;27;20361;-59
2022/10/18 08:12:01;;;;;;;;;;;;;;;;;;5135637;27;19908;-58
2022/10/18 08:14:26;;;;;;;;;;;;;;;;;;5135533;27;19922;-59
2022/10/18 08:16:51;;;;;;;;;;;;;;;;;;5135701;27;20430;-58
2022/10/18 08:19:16;;;;;;;;;;;;;;;;;;5135669;27;19955;-58
2022/10/18 08:21:41;;;;;;;;;;;;;;;;;;5135585;27;19907;-59
2022/10/18 08:24:06;;;;;;;;;;;;;;;;;;5135338;27;19914;-58
2022/10/18 08:26:31;;;;;;;;;;;;;;;;;;5135511;27;20067;-59
2022/10/18 08:28:56;;;;;;;;;;;;;;;;;;5134997;27;20335;-58
2022/10/18 08:31:21;;;;;;;;;;;;;;;;;;5134664;27;19919;-58
2022/10/18 08:33:46;;;;;;;;;;;;;;;;;;5135470;27;19908;-58
2022/10/18 08:36:12;;;;;;;;;;;;;;;;;;5135017;27;19911;-58
2022/10/18 08:38:37;;;;;;;;;;;;;;;;;;5134889;27;20394;-58
2022/10/18 08:41:02;;;;;;;;;;;;;;;;;;5135102;27;19908;-58
2022/10/18 08:43:27;;;;;;;;;;;;;;;;;;5134870;27;19914;-58
2022/10/18 08:45:52;;;;;;;;;;;;;;;;;;5134877;27;19916;-58
2022/10/18 08:48:17;;;;;;;;;;;;;;;;;;5134809;27;19946;-58
2022/10/18 08:50:42;;;;;;;;;;;;;;;;;;5134922;27;19911;-59
2022/10/18 08:53:07;;;;;;;;;;;;;;;;;;5134700;27;19911;-58
2022/10/18 08:55:35;;;;;;;;;;;;;;;;;;5135116;27;20278;-58
2022/10/18 08:58:00;;;;;;;;;;;;;;;;;;5134738;27;19953;-59
2022/10/18 09:00:25;;;;;;;;;;;;;;;;;;5134442;27;19911;-59
2022/10/18 09:02:50;;;;;;;;;;;;;;;;;;5134656;27;19907;-59
2022/10/18 09:05:15;;;;;;;;;;;;;;;;;;5134734;27;19907;-58
2022/10/18 09:07:40;;;;;;;;;;;;;;;;;;5134419;27;19952;-59
2022/10/18 09:10:05;;;;;;;;;;;;;;;;;;5134780;27;20354;-59
2022/10/18 09:12:30;;;;;;;;;;;;;;;;;;5134511;27;19914;-59
2022/10/18 09:14:56;;;;;;;;;;;;;;;;;;5134319;27;19911;-58
2022/10/18 09:17:21;;;;;;;;;;;;;;;;;;5134496;27;19998;-58
2022/10/18 09:19:46;;;;;;;;;;;;;;;;;;5134369;27;19921;-59
2022/10/18 09:22:11;;;;;;;;;;;;;;;;;;5134276;27;19972;-58
2022/10/18 09:24:36;;;;;;;;;;;;;;;;;;5134352;27;20380;-59
2022/10/18 09:27:01;;;;;;;;;;;;;;;;;;5134151;27;20476;-58
2022/10/18 09:29:26;;;;;;;;;;;;;;;;;;5133855;27;19912;-58
2022/10/18 09:31:51;;;;;;;;;;;;;;;;;;5134115;27;19911;-59
2022/10/18 09:34:16;;;;;;;;;;;;;;;;;;5133944;27;19915;-58
2022/10/18 09:36:41;;;;;;;;;;;;;;;;;;5133918;27;20362;-59
2022/10/18 09:39:06;;;;;;;;;;;;;;;;;;5133794;27;19999;-59
2022/10/18 09:41:31;;;;;;;;;;;;;;;;;;5134116;27;19914;-59
2022/10/18 09:43:57;;;;;;;;;;;;;;;;;;5133385;27;20361;-59
2022/10/18 09:46:22;;;;;;;;;;;;;;;;;;5133743;27;20366;-59
2022/10/18 09:48:47;;;;;;;;;;;;;;;;;;5133687;27;19916;-59
2022/10/18 09:51:12;;;;;;;;;;;;;;;;;;5133689;27;19946;-59
2022/10/18 09:53:37;;;;;;;;;;;;;;;;;;5133705;27;20350;-57
2022/10/18 09:56:02;;;;;;;;;;;;;;;;;;5133684;27;19908;-59
2022/10/18 09:58:27;;;;;;;;;;;;;;;;;;5133540;27;19931;-58
2022/10/18 10:00:52;;;;;;;;;;;;;;;;;;5133391;27;20319;-58
2022/10/18 10:03:17;;;;;;;;;;;;;;;;;;5133347;27;19915;-58
2022/10/18 10:05:43;;;;;;;;;;;;;;;;;;5133814;27;19954;-58
2022/10/18 10:08:08;;;;;;;;;;;;;;;;;;5133523;27;20017;-58
2022/10/18 10:10:33;;;;;;;;;;;;;;;;;;5133386;27;19916;-58
2022/10/18 10:12:58;;;;;;;;;;;;;;;;;;5133259;27;20313;-59
2022/10/18 10:15:25;;;;;;;;;;;;;;;;;;5133012;27;19931;-58
2022/10/18 10:17:50;;;;;;;;;;;;;;;;;;5133270;27;19960;-57
2022/10/18 10:20:15;;;;;;;;;;;;;;;;;;5133194;27;19908;-58
2022/10/18 10:22:41;;;;;;;;;;;;;;;;;;5133362;27;19952;-58
2022/10/18 10:25:06;;;;;;;;;;;;;;;;;;5133024;27;19949;-58
2022/10/18 10:27:31;;;;;;;;;;;;;;;;;;5133175;27;19908;-58
2022/10/18 10:29:56;;;;;;;;;;;;;;;;;;5132302;27;19958;-57
2022/10/18 10:32:21;;;;;;;;;;;;;;;;;;5132593;27;20374;-58
2022/10/18 10:34:46;;;;;;;;;;;;;;;;;;5133125;27;19912;-57
2022/10/18 10:37:11;;;;;;;;;;;;;;;;;;5132872;27;19990;-57
2022/10/18 10:39:36;;;;;;;;;;;;;;;;;;5132858;27;19907;-57
2022/10/18 10:42:02;;;;;;;;;;;;;;;;;;5132622;27;19988;-58
2022/10/18 10:44:27;;;;;;;;;;;;;;;;;;5132499;27;20285;-59
2022/10/18 10:46:52;;;;;;;;;;;;;;;;;;5132724;27;19907;-58
2022/10/18 10:49:17;;;;;;;;;;;;;;;;;;5132414;27;19924;-58
2022/10/18 10:51:42;;;;;;;;;;;;;;;;;;5132723;27;19946;-58
2022/10/18 10:54:10;;;;;;;;;;;;;;;;;;5132323;27;19951;-58
2022/10/18 10:56:36;;;;;;;;;;;;;;;;;;5132845;27;19960;-58
2022/10/18 10:59:01;;;;;;;;;;;;;;;;;;5132378;27;19908;-58
2022/10/18 11:01:26;;;;;;;;;;;;;;;;;;5131989;27;19914;-59
2022/10/18 11:03:51;;;;;;;;;;;;;;;;;;5132334;27;19912;-58
2022/10/18 11:06:16;;;;;;;;;;;;;;;;;;5132216;27;19910;-57
2022/10/18 11:08:42;;;;;;;;;;;;;;;;;;5132201;27;19981;-57
2022/10/18 11:11:07;;;;;;;;;;;;;;;;;;5132310;27;20409;-58
2022/10/18 11:13:34;;;;;;;;;;;;;;;;;;5132176;27;20354;-58
2022/10/18 11:15:59;;;;;;;;;;;;;;;;;;5132073;28;19952;-58
2022/10/18 11:18:24;;;;;;;;;;;;;;;;;;5132225;28;19966;-58
2022/10/18 11:20:49;;;;;;;;;;;;;;;;;;5132506;28;20381;-58
2022/10/18 11:23:15;;;;;;;;;;;;;;;;;;5132305;28;19907;-58
2022/10/18 11:25:40;;;;;;;;;;;;;;;;;;5132347;28;19982;-59
2022/10/18 11:28:05;;;;;;;;;;;;;;;;;;5132316;28;19907;-58
2022/10/18 11:30:30;;;;;;;;;;;;;;;;;;5131787;28;19934;-58
2022/10/18 11:32:55;;;;;;;;;;;;;;;;;;5132107;28;19908;-59
2022/10/18 11:35:20;;;;;;;;;;;;;;;;;;5132054;28;19913;-59
2022/10/18 11:37:45;;;;;;;;;;;;;;;;;;5131948;28;19912;-59
2022/10/18 11:40:10;;;;;;;;;;;;;;;;;;5132216;28;19908;-58
2022/10/18 11:42:35;;;;;;;;;;;;;;;;;;5132077;28;19952;-59
2022/10/18 11:45:00;;;;;;;;;;;;;;;;;;5131694;28;19907;-59
2022/10/18 11:47:25;;;;;;;;;;;;;;;;;;5132109;28;20317;-58
2022/10/18 11:49:50;;;;;;;;;;;;;;;;;;5131834;28;19922;-58
2022/10/18 11:52:16;;;;;;;;;;;;;;;;;;5131983;28;19912;-58
2022/10/18 11:54:41;;;;;;;;;;;;;;;;;;5131820;28;19907;-59
2022/10/18 11:57:06;;;;;;;;;;;;;;;;;;5132234;28;19908;-58
2022/10/18 11:59:31;;;;;;;;;;;;;;;;;;5131820;28;19911;-59
2022/10/18 12:01:56;;;;;;;;;;;;;;;;;;5131901;28;19912;-58
2022/10/18 12:04:21;;;;;;;;;;;;;;;;;;5131184;28;20393;-59
2022/10/18 12:06:46;;;;;;;;;;;;;;;;;;5134229;27;19922;-59
2022/10/18 12:09:11;;;;;;;;;;;;;;;;;;5135744;27;19918;-58
2022/10/18 12:11:36;;;;;;;;;;;;;;;;;;5135782;27;19915;-58
2022/10/18 12:14:02;;;;;;;;;;;;;;;;;;5135265;27;20325;-58
2022/10/18 12:16:27;;;;;;;;;;;;;;;;;;5135245;27;19918;-58
2022/10/18 12:18:52;;;;;;;;;;;;;;;;;;5133905;27;20350;-59
2022/10/18 12:21:17;;;;;;;;;;;;;;;;;;5135415;27;19911;-58
2022/10/18 12:23:42;;;;;;;;;;;;;;;;;;5135292;27;20158;-58
2022/10/18 12:26:07;;;;;;;;;;;;;;;;;;5135485;27;20115;-58
2022/10/18 12:28:32;;;;;;;;;;;;;;;;;;5135511;27;19938;-57
2022/10/18 12:30:57;;;;;;;;;;;;;;;;;;5134778;27;19951;-57
2022/10/18 12:33:25;;;;;;;;;;;;;;;;;;5135329;27;19907;-57
2022/10/18 12:35:50;;;;;;;;;;;;;;;;;;5134629;27;19908;-58
2022/10/18 12:38:15;;;;;;;;;;;;;;;;;;5134916;27;19908;-58
2022/10/18 12:40:40;;;;;;;;;;;;;;;;;;5135152;27;19912;-58
2022/10/18 12:43:05;;;;;;;;;;;;;;;;;;5134947;27;20002;-58
2022/10/18 12:45:32;;;;;;;;;;;;;;;;;;5134659;27;20277;-58
2022/10/18 12:47:57;;;;;;;;;;;;;;;;;;5134790;27;19911;-58
2022/10/18 12:50:22;;;;;;;;;;;;;;;;;;5134886;27;19907;-58
2022/10/18 12:52:47;;;;;;;;;;;;;;;;;;5135318;27;19908;-57
2022/10/18 12:55:12;;;;;;;;;;;;;;;;;;5134889;27;19911;-58
2022/10/18 12:57:37;;;;;;;;;;;;;;;;;;5135025;27;20423;-59
2022/10/18 13:00:02;;;;;;;;;;;;;;;;;;5134457;27;19907;-57
2022/10/18 13:02:27;;;;;;;;;;;;;;;;;;5134585;27;20388;-57
2022/10/18 13:04:53;;;;;;;;;;;;;;;;;;5134400;27;19914;-57
2022/10/18 13:07:18;;;;;;;;;;;;;;;;;;5134787;27;19908;-58
2022/10/18 13:09:43;;;;;;;;;;;;;;;;;;5134447;27;20370;-58
2022/10/18 13:12:08;;;;;;;;;;;;;;;;;;5134592;27;19950;-58
2022/10/18 13:14:34;;;;;;;;;;;;;;;;;;5134112;27;19918;-58
2022/10/18 13:16:59;;;;;;;;;;;;;;;;;;5133528;27;19907;-58
2022/10/18 13:19:24;;;;;;;;;;;;;;;;;;5133846;27;19958;-58
2022/10/18 13:21:49;;;;;;;;;;;;;;;;;;5134220;27;20357;-58
2022/10/18 13:24:14;;;;;;;;;;;;;;;;;;5134228;27;19907;-58
2022/10/18 13:26:39;;;;;;;;;;;;;;;;;;5133492;27;19964;-57
2022/10/18 13:29:05;;;;;;;;;;;;;;;;;;5134203;27;20286;-58
2022/10/18 13:31:30;;;;;;;;;;;;;;;;;;5133691;27;19954;-58
2022/10/18 13:33:55;;;;;;;;;;;;;;;;;;5134461;27;19964;-58
2022/10/18 13:36:20;;;;;;;;;;;;;;;;;;5133643;27;19947;-58
2022/10/18 13:38:48;;;;;;;;;;;;;;;;;;5133926;27;20002;-58
2022/10/18 13:41:14;;;;;;;;;;;;;;;;;;5115147;27;20148;-57
2022/10/18 13:43:39;;;;;;;;;;;;;;;;;;5133467;27;19914;-58
2022/10/18 13:46:04;;;;;;;;;;;;;;;;;;5133622;27;20355;-57
2022/10/18 13:48:29;;;;;;;;;;;;;;;;;;5133844;27;19915;-58
2022/10/18 13:50:54;;;;;;;;;;;;;;;;;;5133831;27;19965;-58
2022/10/18 13:53:19;;;;;;;;;;;;;;;;;;5133318;27;19907;-58
2022/10/18 13:55:44;;;;;;;;;;;;;;;;;;5133608;27;20315;-58
2022/10/18 13:58:09;;;;;;;;;;;;;;;;;;5133799;27;19929;-58
2022/10/18 14:00:35;;;;;;;;;;;;;;;;;;5133590;27;19907;-58
2022/10/18 14:03:00;;;;;;;;;;;;;;;;;;5133474;27;19914;-58
2022/10/18 14:05:25;;;;;;;;;;;;;;;;;;5133329;27;19912;-59
2022/10/18 14:07:50;;;;;;;;;;;;;;;;;;5133428;27;19907;-58
2022/10/18 14:10:15;;;;;;;;;;;;;;;;;;5133406;27;19911;-57
2022/10/18 14:12:40;;;;;;;;;;;;;;;;;;5133046;27;20029;-58
2022/10/18 14:15:05;;;;;;;;;;;;;;;;;;5133478;27;19931;-59
2022/10/18 14:17:30;;;;;;;;;;;;;;;;;;5132416;27;20298;-59
2022/10/18 14:19:55;;;;;;;;;;;;;;;;;;5133440;27;20353;-59
2022/10/18 14:22:20;;;;;;;;;;;;;;;;;;5133186;27;19976;-59
2022/10/18 14:24:45;;;;;;;;;;;;;;;;;;5133067;27;19907;-59
2022/10/18 14:27:11;;;;;;;;;;;;;;;;;;5132945;27;19908;-59
2022/10/18 14:29:36;;;;;;;;;;;;;;;;;;5132404;27;20517;-58
2022/10/18 14:32:02;;;;;;;;;;;;;;;;;;5132763;27;19915;-59
2022/10/18 14:34:27;;;;;;;;;;;;;;;;;;5132853;27;20441;-58
2022/10/18 14:36:52;;;;;;;;;;;;;;;;;;5132863;27;19911;-59
2022/10/18 14:39:17;;;;;;;;;;;;;;;;;;5133074;27;19912;-60
2022/10/18 14:41:42;;;;;;;;;;;;;;;;;;5132718;27;19982;-58
2022/10/18 14:44:07;;;;;;;;;;;;;;;;;;5132624;27;19957;-58
2022/10/18 14:46:33;;;;;;;;;;;;;;;;;;5132154;27;19952;-58
2022/10/18 14:48:58;;;;;;;;;;;;;;;;;;5132577;27;20297;-58
2022/10/18 14:51:23;;;;;;;;;;;;;;;;;;5132954;27;19908;-58
2022/10/18 14:53:48;;;;;;;;;;;;;;;;;;5132598;27;19908;-58
2022/10/18 14:56:13;;;;;;;;;;;;;;;;;;5132605;27;19908;-58
2022/10/18 14:58:38;;;;;;;;;;;;;;;;;;5132507;27;19911;-58
2022/10/18 15:01:03;;;;;;;;;;;;;;;;;;5132216;27;19911;-58
2022/10/18 15:03:29;;;;;;;;;;;;;;;;;;5132426;27;19995;-58
2022/10/18 15:05:54;;;;;;;;;;;;;;;;;;5132364;27;19952;-58
2022/10/18 15:08:19;;;;;;;;;;;;;;;;;;5132236;27;19952;-58
2022/10/18 15:10:44;;;;;;;;;;;;;;;;;;5132289;27;19911;-58
2022/10/18 15:13:09;;;;;;;;;;;;;;;;;;5132263;27;19915;-58
2022/10/18 15:15:34;;;;;;;;;;;;;;;;;;5132247;27;20023;-58
2022/10/18 15:17:59;;;;;;;;;;;;;;;;;;5132412;28;19911;-58
2022/10/18 15:20:24;;;;;;;;;;;;;;;;;;5132387;28;19911;-58
2022/10/18 15:22:49;;;;;;;;;;;;;;;;;;5132404;28;20386;-59
2022/10/18 15:25:14;;;;;;;;;;;;;;;;;;5132270;28;19914;-58
2022/10/18 15:27:40;;;;;;;;;;;;;;;;;;5131892;28;19959;-58
2022/10/18 15:30:07;;;;;;;;;;;;;;;;;;5132197;28;19916;-58
2022/10/18 15:32:32;;;;;;;;;;;;;;;;;;5132312;28;19903;-57
2022/10/18 15:34:57;;;;;;;;;;;;;;;;;;5131967;28;19934;-58
2022/10/18 15:37:22;;;;;;;;;;;;;;;;;;5131809;28;19911;-58
2022/10/18 15:39:47;;;;;;;;;;;;;;;;;;5132196;27;19916;-58
2022/10/18 15:42:12;;;;;;;;;;;;;;;;;;5135315;27;20020;-57
2022/10/18 15:44:37;;;;;;;;;;;;;;;;;;5135841;27;19915;-58
2022/10/18 15:47:02;;;;;;;;;;;;;;;;;;5136070;27;20349;-58
2022/10/18 15:49:28;;;;;;;;;;;;;;;;;;5136087;27;19919;-58
2022/10/18 15:51:53;;;;;;;;;;;;;;;;;;5136047;27;19964;-58
2022/10/18 15:54:18;;;;;;;;;;;;;;;;;;5135915;27;19921;-58
2022/10/18 15:56:43;;;;;;;;;;;;;;;;;;5135643;27;20357;-58
2022/10/18 15:59:08;;;;;;;;;;;;;;;;;;5136096;27;20312;-58
2022/10/18 16:01:33;;;;;;;;;;;;;;;;;;5135698;27;19911;-57
2022/10/18 16:03:58;;;;;;;;;;;;;;;;;;5135652;27;19914;-58
2022/10/18 16:06:23;;;;;;;;;;;;;;;;;;5135651;27;19915;-58
2022/10/18 16:08:48;;;;;;;;;;;;;;;;;;5135476;27;19941;-57
2022/10/18 16:11:14;;;;;;;;;;;;;;;;;;5135725;27;19930;-58
2022/10/18 16:13:39;;;;;;;;;;;;;;;;;;5135211;27;19908;-58
2022/10/18 16:16:04;;;;;;;;;;;;;;;;;;5135378;27;19907;-58
2022/10/18 16:18:29;;;;;;;;;;;;;;;;;;5135660;27;20400;-58
2022/10/18 16:20:54;;;;;;;;;;;;;;;;;;5135295;27;20002;-59
2022/10/18 16:23:19;;;;;;;;;;;;;;;;;;5135921;27;19950;-58
2022/10/18 16:25:45;;;;;;;;;;;;;;;;;;5135391;27;19907;-58
2022/10/18 16:28:10;;;;;;;;;;;;;;;;;;5134652;27;19914;-58
2022/10/18 16:30:35;;;;;;;;;;;;;;;;;;5135213;27;20009;-58